Time;durP1;ratioP1;P1;durP2;ratioP2;P2;SDS_P1;SDS_P2;PMS_P1;PMS_P2;Temp;Humidity;BMP_temperature;BMP_pressure;BME280_temperature;BME280_humidity;BME280_pressure;Samples;Min_cycle;Max_cycle;Signal;HPM_P1;HPM_P2
2022/07/17 00:01:04;;;;;;;;;;;;;;;23.77;35.54;99876.16;4975345;28;19918;-78
2022/07/17 00:03:29;;;;;;;;;;;;;;;23.78;35.54;99880.53;4975702;28;20020;-77
2022/07/17 00:05:54;;;;;;;;;;;;;;;23.77;35.55;99878.88;4975579;28;19957;-78
2022/07/17 00:08:20;;;;;;;;;;;;;;;23.77;35.66;99883.53;4975452;28;20316;-78
2022/07/17 00:10:45;;;;;;;;;;;;;;;23.77;35.61;99873.44;4975330;28;19914;-79
2022/07/17 00:13:11;;;;;;;;;;;;;;;23.77;35.74;99878.88;4976848;28;20416;-78
2022/07/17 00:15:36;;;;;;;;;;;;;;;23.77;35.65;99881.59;4979528;28;19921;-80
2022/07/17 00:18:01;;;;;;;;;;;;;;;23.77;35.75;99878.88;4979547;28;19930;-75
2022/07/17 00:20:27;;;;;;;;;;;;;;;23.78;35.73;99875.06;4979562;28;19940;-80
2022/07/17 00:22:52;;;;;;;;;;;;;;;23.77;35.76;99878.88;4979664;28;19914;-78
2022/07/17 00:25:18;;;;;;;;;;;;;;;23.78;35.67;99874.22;4979247;28;20380;-79
2022/07/17 00:27:43;;;;;;;;;;;;;;;23.77;35.68;99878.06;4978966;28;19921;-78
2022/07/17 00:30:08;;;;;;;;;;;;;;;23.78;35.61;99885.97;4979844;28;19914;-79
2022/07/17 00:32:34;;;;;;;;;;;;;;;23.79;35.57;99879.41;4979680;28;19961;-76
2022/07/17 00:34:59;;;;;;;;;;;;;;;23.78;35.81;99879.69;4978808;28;20329;-79
2022/07/17 00:37:24;;;;;;;;;;;;;;;23.76;35.81;99874.50;4978898;28;20280;-76
2022/07/17 00:39:50;;;;;;;;;;;;;;;23.76;35.76;99882.69;4978947;28;19914;-80
2022/07/17 00:42:15;;;;;;;;;;;;;;;23.76;35.82;99871.78;4978650;28;19976;-77
2022/07/17 00:44:41;;;;;;;;;;;;;;;23.77;35.72;99875.34;4979175;28;20370;-79
2022/07/17 00:47:24;;;;;;;;;;;;;;;23.76;35.86;99877.25;4978787;28;19910;-77
2022/07/17 00:49:49;;;;;;;;;;;;;;;23.77;35.71;99876.16;4978487;28;19997;-78
2022/07/17 00:52:15;;;;;;;;;;;;;;;23.78;35.82;99876.97;4978887;28;19956;-80
2022/07/17 00:54:41;;;;;;;;;;;;;;;23.77;35.69;99873.44;4978719;28;20372;-79
2022/07/17 00:57:07;;;;;;;;;;;;;;;23.76;35.58;99871.78;4978593;28;20308;-79
2022/07/17 00:59:33;;;;;;;;;;;;;;;23.76;35.75;99871.78;4979545;28;20257;-78
2022/07/17 01:01:58;;;;;;;;;;;;;;;23.75;35.66;99870.19;4978734;28;19918;-79
2022/07/17 01:04:23;;;;;;;;;;;;;;;23.75;35.54;99869.34;4978606;28;20371;-77
2022/07/17 01:06:49;;;;;;;;;;;;;;;23.76;35.78;99871.78;4961458;28;19914;-78
2022/07/17 01:09:14;;;;;;;;;;;;;;;23.76;35.72;99874.50;4978325;28;19984;-78
2022/07/17 01:11:39;;;;;;;;;;;;;;;23.77;35.81;99878.06;4978570;28;19922;-77
2022/07/17 01:14:04;;;;;;;;;;;;;;;23.77;35.85;99873.44;4978175;28;20328;-77
2022/07/17 01:16:30;;;;;;;;;;;;;;;23.76;35.61;99877.25;4961424;28;19997;-79
2022/07/17 01:18:55;;;;;;;;;;;;;;;23.76;35.93;99882.69;4960871;28;19914;-78
2022/07/17 01:21:20;;;;;;;;;;;;;;;23.75;35.83;99877.53;4961035;28;19918;-78
2022/07/17 01:23:46;;;;;;;;;;;;;;;23.77;35.86;99873.44;4978124;28;20240;-77
2022/07/17 01:26:11;;;;;;;;;;;;;;;23.75;36.07;99875.63;4977868;28;19918;-77
2022/07/17 01:28:36;;;;;;;;;;;;;;;23.77;35.96;99878.06;4978180;28;19944;-80
2022/07/17 01:31:03;;;;;;;;;;;;;;;23.76;35.74;99870.97;4977767;28;20381;-77
2022/07/17 01:33:28;;;;;;;;;;;;;;;23.75;35.79;99874.81;4978238;28;20357;-79
2022/07/17 01:35:53;;;;;;;;;;;;;;;23.76;35.76;99873.72;4978273;28;19914;-77
2022/07/17 01:38:19;;;;;;;;;;;;;;;23.75;35.72;99872.91;4978008;28;20451;-78
2022/07/17 01:40:44;;;;;;;;;;;;;;;23.76;35.89;99871.78;4977684;28;19914;-78
2022/07/17 01:43:09;;;;;;;;;;;;;;;23.76;35.81;99871.78;4977505;28;20016;-77
2022/07/17 01:45:34;;;;;;;;;;;;;;;23.76;35.75;99882.69;4977652;28;19914;-78
2022/07/17 01:48:00;;;;;;;;;;;;;;;23.75;35.96;99877.53;4977708;28;19945;-77
2022/07/17 01:50:25;;;;;;;;;;;;;;;23.77;35.85;99875.34;4977272;28;19937;-80
2022/07/17 01:52:50;;;;;;;;;;;;;;;23.76;35.75;99877.25;4977626;28;19918;-77
2022/07/17 01:55:16;;;;;;;;;;;;;;;23.76;35.99;99877.25;4977889;28;19914;-80
2022/07/17 01:57:41;;;;;;;;;;;;;;;23.76;35.80;99871.78;4977750;28;19918;-77
2022/07/17 02:00:08;;;;;;;;;;;;;;;23.76;35.74;99873.72;4977689;28;19956;-80
2022/07/17 02:02:33;;;;;;;;;;;;;;;23.76;35.94;99877.25;4977859;28;19949;-76
2022/07/17 02:04:58;;;;;;;;;;;;;;;23.75;36.07;99878.34;4977323;28;19918;-81
2022/07/17 02:07:24;;;;;;;;;;;;;;;23.75;36.09;99864.72;4977653;28;20008;-77
2022/07/17 02:09:49;;;;;;;;;;;;;;;23.75;35.93;99872.91;4977475;28;19914;-80
2022/07/17 02:12:15;;;;;;;;;;;;;;;23.76;35.97;99873.72;4977173;28;19914;-77
2022/07/17 02:14:40;;;;;;;;;;;;;;;23.68;36.05;99858.78;4977492;28;19969;-79
2022/07/17 02:17:05;;;;;;;;;;;;;;;23.75;35.93;99862.00;4976941;28;19921;-78
2022/07/17 02:19:31;;;;;;;;;;;;;;;23.76;35.97;99874.50;4977544;28;19918;-79
2022/07/17 02:21:56;;;;;;;;;;;;;;;23.76;36.27;99865.53;4977375;28;20418;-77
2022/07/17 02:24:21;;;;;;;;;;;;;;;23.75;36.06;99870.19;4977362;28;19937;-78
2022/07/17 02:26:46;;;;;;;;;;;;;;;23.75;35.96;99869.34;4977146;28;20365;-78
2022/07/17 02:29:12;;;;;;;;;;;;;;;23.75;36.17;99867.44;4977245;28;20269;-78
2022/07/17 02:31:37;;;;;;;;;;;;;;;23.75;35.88;99862.00;4977189;28;20012;-78
2022/07/17 02:34:02;;;;;;;;;;;;;;;23.75;36.00;99869.34;4977150;28;19914;-78
2022/07/17 02:36:28;;;;;;;;;;;;;;;23.75;36.27;99864.72;4976677;28;20411;-77
2022/07/17 02:38:53;;;;;;;;;;;;;;;23.76;35.92;99860.06;4977050;28;19922;-78
2022/07/17 02:41:18;;;;;;;;;;;;;;;23.75;35.84;99864.72;4977044;28;19914;-78
2022/07/17 02:43:44;;;;;;;;;;;;;;;23.75;35.99;99862.00;4976543;28;19918;-79
2022/07/17 02:46:09;;;;;;;;;;;;;;;23.75;36.02;99867.44;4977069;28;20333;-78
2022/07/17 02:48:34;;;;;;;;;;;;;;;23.75;36.04;99869.34;4976853;28;19922;-78
2022/07/17 02:50:59;;;;;;;;;;;;;;;23.76;36.22;99860.06;4976753;28;19921;-78
2022/07/17 02:53:25;;;;;;;;;;;;;;;23.75;36.10;99863.88;4976729;28;20008;-78
2022/07/17 02:55:50;;;;;;;;;;;;;;;23.75;36.06;99861.16;4976611;28;19918;-78
2022/07/17 02:58:15;;;;;;;;;;;;;;;23.75;36.14;99861.16;4976732;28;19914;-78
2022/07/17 03:00:40;;;;;;;;;;;;;;;23.76;35.99;99865.53;4976132;28;19965;-79
2022/07/17 03:03:06;;;;;;;;;;;;;;;23.75;36.24;99864.72;4959836;28;19918;-78
2022/07/17 03:05:31;;;;;;;;;;;;;;;23.77;36.20;99867.16;4976555;28;19922;-81
2022/07/17 03:07:56;;;;;;;;;;;;;;;23.74;36.22;99874.00;4976658;28;19977;-78
2022/07/17 03:10:22;;;;;;;;;;;;;;;23.76;36.16;99871.78;4976256;28;19949;-80
2022/07/17 03:12:48;;;;;;;;;;;;;;;23.76;36.41;99870.97;4976098;28;19993;-76
2022/07/17 03:15:13;;;;;;;;;;;;;;;23.76;36.54;99870.97;4976326;28;20400;-81
2022/07/17 03:17:39;;;;;;;;;;;;;;;23.77;36.42;99878.06;4976141;28;19914;-77
2022/07/17 03:20:04;;;;;;;;;;;;;;;23.75;36.37;99882.97;4976959;28;20248;-81
2022/07/17 03:22:29;;;;;;;;;;;;;;;23.74;36.63;99884.09;4976071;28;20306;-78
2022/07/17 03:24:55;;;;;;;;;;;;;;;23.74;36.52;99874.00;4975754;28;20004;-80
2022/07/17 03:27:20;;;;;;;;;;;;;;;23.75;36.52;99881.09;4976154;28;19921;-77
2022/07/17 03:29:45;;;;;;;;;;;;;;;23.76;36.63;99879.16;4975824;28;20339;-79
2022/07/17 03:32:11;;;;;;;;;;;;;;;23.76;36.72;99887.34;4976185;28;19918;-76
2022/07/17 03:34:36;;;;;;;;;;;;;;;23.75;36.89;99883.81;4975869;28;19976;-79
2022/07/17 03:37:02;;;;;;;;;;;;;;;23.76;36.70;99887.34;4975705;28;19989;-78
2022/07/17 03:39:27;;;;;;;;;;;;;;;23.76;36.96;99888.16;4976139;28;19960;-79
2022/07/17 03:41:52;;;;;;;;;;;;;;;23.75;36.97;99881.09;4975984;28;19914;-77
2022/07/17 03:44:17;;;;;;;;;;;;;;;23.76;37.03;99884.63;4975635;28;20265;-78
2022/07/17 03:46:42;;;;;;;;;;;;;;;23.75;36.93;99891.16;4974934;28;19914;-77
2022/07/17 03:49:10;;;;;;;;;;;;;;;23.76;37.00;99887.34;4975674;28;19922;-80
2022/07/17 03:51:35;;;;;;;;;;;;;;;23.75;37.06;99891.16;4975835;28;19940;-77
2022/07/17 03:54:00;;;;;;;;;;;;;;;23.77;37.15;99897.19;4976375;28;19918;-80
2022/07/17 03:56:25;;;;;;;;;;;;;;;23.76;37.19;99898.25;4975496;28;19914;-77
2022/07/17 03:58:51;;;;;;;;;;;;;;;23.75;37.17;99902.09;4975898;28;19932;-80
2022/07/17 04:01:16;;;;;;;;;;;;;;;23.75;37.10;99902.91;4975513;28;20357;-79
2022/07/17 04:03:41;;;;;;;;;;;;;;;23.74;37.16;99906.72;4975769;28;19922;-79
2022/07/17 04:06:06;;;;;;;;;;;;;;;23.75;37.20;99905.66;4975592;28;19916;-76
2022/07/17 04:08:32;;;;;;;;;;;;;;;23.75;37.24;99902.91;4975742;28;19914;-81
2022/07/17 04:10:57;;;;;;;;;;;;;;;23.77;37.09;99910.81;4975346;28;19910;-78
2022/07/17 04:13:22;;;;;;;;;;;;;;;23.75;37.33;99911.09;4975751;28;19914;-79
2022/07/17 04:15:56;;;;;;;;;;;;;;;23.75;37.37;99905.66;4975586;28;20341;-78
2022/07/17 04:18:24;;;;;;;;;;;;;;;23.76;37.45;99909.97;4975388;28;19982;-77
2022/07/17 04:20:50;;;;;;;;;;;;;;;23.76;37.20;99911.91;4976107;28;19921;-77
2022/07/17 04:23:15;;;;;;;;;;;;;;;23.76;37.20;99909.97;4975900;28;20001;-78
2022/07/17 04:25:41;;;;;;;;;;;;;;;23.75;37.33;99913.81;4975612;28;19924;-79
2022/07/17 04:28:06;;;;;;;;;;;;;;;23.77;37.39;99913.53;4975606;28;19914;-78
2022/07/17 04:30:32;;;;;;;;;;;;;;;23.75;37.60;99913.81;4975534;28;19914;-78
2022/07/17 04:32:57;;;;;;;;;;;;;;;23.75;37.38;99913.00;4975295;28;19981;-78
2022/07/17 04:35:22;;;;;;;;;;;;;;;23.75;37.53;99916.56;4975803;28;19914;-77
2022/07/17 04:37:48;;;;;;;;;;;;;;;23.75;37.59;99919.28;4975405;28;20361;-78
2022/07/17 04:40:13;;;;;;;;;;;;;;;23.75;37.72;99922.00;4975208;28;19914;-78
2022/07/17 04:42:38;;;;;;;;;;;;;;;23.77;37.79;99924.47;4975060;28;19925;-78
2022/07/17 04:45:04;;;;;;;;;;;;;;;23.74;37.67;99917.66;4975301;28;19914;-77
2022/07/17 04:47:29;;;;;;;;;;;;;;;23.75;37.94;99921.19;4975488;28;20001;-78
2022/07/17 04:49:55;;;;;;;;;;;;;;;23.75;37.82;99919.28;4975419;28;19988;-77
2022/07/17 04:52:20;;;;;;;;;;;;;;;23.76;37.92;99928.28;4974867;28;19961;-80
2022/07/17 04:54:45;;;;;;;;;;;;;;;23.76;37.88;99920.09;4975526;28;19921;-76
2022/07/17 04:57:11;;;;;;;;;;;;;;;23.76;38.14;99925.53;4975808;28;19925;-78
2022/07/17 04:59:37;;;;;;;;;;;;;;;23.76;38.05;99920.88;4977066;28;19914;-78
2022/07/17 05:02:02;;;;;;;;;;;;;;;23.76;38.03;99917.34;4978900;28;19924;-79
2022/07/17 05:04:27;;;;;;;;;;;;;;;23.75;38.01;99922.00;4978617;28;20013;-78
2022/07/17 05:06:53;;;;;;;;;;;;;;;23.76;38.09;99915.44;4978495;28;19914;-79
2022/07/17 05:09:18;;;;;;;;;;;;;;;23.75;38.04;99911.09;4978934;28;19918;-78
2022/07/17 05:11:43;;;;;;;;;;;;;;;23.76;38.05;99915.44;4978757;28;19937;-78
2022/07/17 05:14:08;;;;;;;;;;;;;;;23.77;37.95;99916.28;4978609;28;20308;-77
2022/07/17 05:16:34;;;;;;;;;;;;;;;23.77;37.95;99914.34;4978645;28;19918;-79
2022/07/17 05:18:59;;;;;;;;;;;;;;;23.76;37.93;99915.44;4978507;28;19968;-78
2022/07/17 05:21:27;;;;;;;;;;;;;;;23.76;38.02;99914.63;4978211;28;20280;-78
2022/07/17 05:23:53;;;;;;;;;;;;;;;23.77;38.14;99919.81;4978797;28;19914;-78
2022/07/17 05:26:18;;;;;;;;;;;;;;;23.76;38.10;99918.16;4978693;28;19937;-78
2022/07/17 05:28:43;;;;;;;;;;;;;;;23.76;38.28;99926.34;4978231;28;19941;-78
2022/07/17 05:31:08;;;;;;;;;;;;;;;23.76;38.09;99923.63;4978220;28;20272;-79
2022/07/17 05:33:34;;;;;;;;;;;;;;;23.77;38.06;99922.53;4977695;28;19914;-78
2022/07/17 05:35:59;;;;;;;;;;;;;;;23.77;38.16;99922.53;4977924;28;19914;-77
2022/07/17 05:38:24;;;;;;;;;;;;;;;23.76;38.08;99926.34;4978216;28;19961;-77
2022/07/17 05:40:50;;;;;;;;;;;;;;;23.77;38.10;99919.00;4977709;28;19921;-78
2022/07/17 05:43:15;;;;;;;;;;;;;;;23.76;38.40;99920.88;4977552;28;20009;-80
2022/07/17 05:45:40;;;;;;;;;;;;;;;23.77;38.48;99928.00;4977814;28;19914;-78
2022/07/17 05:48:06;;;;;;;;;;;;;;;23.77;38.47;99930.72;4977794;28;19968;-78
2022/07/17 05:50:32;;;;;;;;;;;;;;;23.77;38.42;99933.44;4977540;28;19918;-79
2022/07/17 05:52:57;;;;;;;;;;;;;;;23.77;38.85;99930.72;4978026;28;19913;-80
2022/07/17 05:55:22;;;;;;;;;;;;;;;23.77;38.88;99935.38;4977599;28;20009;-78
2022/07/17 05:57:47;;;;;;;;;;;;;;;23.78;39.03;99934.25;4977519;28;19914;-78
2022/07/17 06:00:13;;;;;;;;;;;;;;;23.78;38.81;99942.44;4977449;28;19960;-78
2022/07/17 06:02:38;;;;;;;;;;;;;;;23.76;38.89;99934.53;4977671;28;20025;-78
2022/07/17 06:05:03;;;;;;;;;;;;;;;23.78;39.03;99943.28;4977526;28;20399;-78
2022/07/17 06:07:29;;;;;;;;;;;;;;;23.77;39.05;99941.63;4977570;28;19918;-78
2022/07/17 06:09:54;;;;;;;;;;;;;;;23.78;39.05;99945.16;4977068;28;19914;-78
2022/07/17 06:12:19;;;;;;;;;;;;;;;23.76;39.23;99942.72;4977148;28;19916;-78
2022/07/17 06:14:44;;;;;;;;;;;;;;;23.77;39.31;99947.09;4977490;28;19914;-78
2022/07/17 06:17:10;;;;;;;;;;;;;;;23.77;39.44;99949.81;4977431;28;19937;-81
2022/07/17 06:19:35;;;;;;;;;;;;;;;23.77;39.45;99949.81;4977130;28;19914;-78
2022/07/17 06:22:00;;;;;;;;;;;;;;;23.77;39.80;99947.09;4977335;28;20035;-79
2022/07/17 06:24:26;;;;;;;;;;;;;;;23.77;39.87;99952.53;4960067;28;20430;-78
2022/07/17 06:26:51;;;;;;;;;;;;;;;23.78;39.73;99956.06;4977354;28;19918;-80
2022/07/17 06:29:16;;;;;;;;;;;;;;;23.78;39.72;99956.06;4977436;28;19968;-78
2022/07/17 06:31:41;;;;;;;;;;;;;;;23.77;39.86;99955.28;4977382;28;19914;-81
2022/07/17 06:34:07;;;;;;;;;;;;;;;23.78;39.86;99962.38;4977023;28;20353;-78
2022/07/17 06:36:32;;;;;;;;;;;;;;;23.79;39.82;99953.06;4977319;28;19918;-80
2022/07/17 06:38:57;;;;;;;;;;;;;;;23.80;39.76;99954.72;4977008;28;19914;-78
2022/07/17 06:41:22;;;;;;;;;;;;;;;23.79;39.80;99953.06;4977139;28;19936;-79
2022/07/17 06:43:48;;;;;;;;;;;;;;;23.78;39.86;99956.06;4976547;28;20288;-79
2022/07/17 06:46:13;;;;;;;;;;;;;;;23.78;39.95;99956.06;4977234;28;19914;-78
2022/07/17 06:48:38;;;;;;;;;;;;;;;23.77;40.30;99952.53;4976661;28;19914;-78
2022/07/17 06:51:04;;;;;;;;;;;;;;;23.78;40.23;99962.38;4976809;28;19917;-79
2022/07/17 06:53:29;;;;;;;;;;;;;;;23.79;40.50;99963.19;4976823;28;20353;-77
2022/07/17 06:55:54;;;;;;;;;;;;;;;23.78;40.33;99958.81;4977126;28;20375;-79
2022/07/17 06:58:19;;;;;;;;;;;;;;;23.77;40.45;99955.28;4976808;28;19913;-78
2022/07/17 07:00:44;;;;;;;;;;;;;;;23.78;40.40;99956.91;4976581;28;19921;-79
2022/07/17 07:03:10;;;;;;;;;;;;;;;23.77;40.56;99955.28;4976404;28;19922;-78
2022/07/17 07:05:35;;;;;;;;;;;;;;;23.78;40.45;99956.06;4976807;28;20369;-78
2022/07/17 07:08:00;;;;;;;;;;;;;;;23.78;40.49;99962.38;4976281;28;19924;-78
2022/07/17 07:10:26;;;;;;;;;;;;;;;23.77;40.61;99966.19;4976533;28;19920;-78
2022/07/17 07:12:51;;;;;;;;;;;;;;;23.77;40.54;99971.66;4976580;28;19925;-82
2022/07/17 07:15:16;;;;;;;;;;;;;;;23.78;40.50;99967.81;4976352;28;20009;-78
2022/07/17 07:17:42;;;;;;;;;;;;;;;23.77;40.39;99974.38;4976645;28;19914;-81
2022/07/17 07:20:07;;;;;;;;;;;;;;;23.77;40.88;99977.09;4959289;28;20375;-78
2022/07/17 07:22:33;;;;;;;;;;;;;;;23.77;40.51;99988.00;4975718;28;20405;-80
2022/07/17 07:24:58;;;;;;;;;;;;;;;23.78;40.89;99980.63;4976896;28;19960;-78
2022/07/17 07:27:23;;;;;;;;;;;;;;;23.78;40.83;99988.81;4976394;28;20380;-81
2022/07/17 07:29:49;;;;;;;;;;;;;;;23.78;40.96;99995.13;4976365;28;19918;-77
2022/07/17 07:32:14;;;;;;;;;;;;;;;23.79;41.21;99995.91;4976044;28;20312;-80
2022/07/17 07:34:39;;;;;;;;;;;;;;;23.77;40.75;99993.47;4976265;28;19923;-76
2022/07/17 07:37:04;;;;;;;;;;;;;;;23.78;41.11;100000.56;4975887;28;19914;-81
2022/07/17 07:39:30;;;;;;;;;;;;;;;23.77;40.91;100001.66;4976101;28;19914;-78
2022/07/17 07:41:55;;;;;;;;;;;;;;;23.80;41.05;99997.53;4975853;28;20364;-78
2022/07/17 07:44:20;;;;;;;;;;;;;;;23.79;41.05;100001.38;4975537;28;19997;-78
2022/07/17 07:46:46;;;;;;;;;;;;;;;23.77;40.78;99998.94;4975861;28;19914;-78
2022/07/17 07:49:11;;;;;;;;;;;;;;;23.78;40.74;100016.94;4975994;28;19918;-78
2022/07/17 07:51:36;;;;;;;;;;;;;;;23.80;40.56;100013.91;4975798;28;19914;-77
2022/07/17 07:54:01;;;;;;;;;;;;;;;23.78;40.80;100022.41;4975537;28;20009;-78
2022/07/17 07:56:27;;;;;;;;;;;;;;;23.79;40.64;100023.19;4975747;28;19922;-78
2022/07/17 07:58:52;;;;;;;;;;;;;;;23.79;40.52;100024.00;4975677;28;19914;-78
2022/07/17 08:01:17;;;;;;;;;;;;;;;23.79;40.60;100023.19;4975530;28;19914;-78
2022/07/17 08:03:43;;;;;;;;;;;;;;;23.79;40.45;100028.66;4958382;28;19964;-79
2022/07/17 08:06:08;;;;;;;;;;;;;;;23.77;40.39;100037.13;4975925;28;19910;-78
2022/07/17 08:08:33;;;;;;;;;;;;;;;23.78;40.55;100033.31;4975885;28;19921;-81
2022/07/17 08:10:58;;;;;;;;;;;;;;;23.78;40.51;100036.03;4976171;28;20357;-78
2022/07/17 08:13:24;;;;;;;;;;;;;;;23.78;40.45;100044.22;4975808;28;20068;-78
2022/07/17 08:15:49;;;;;;;;;;;;;;;23.79;40.60;100042.31;4975935;28;20331;-78
2022/07/17 08:18:14;;;;;;;;;;;;;;;23.79;40.79;100040.38;4976268;28;20277;-81
2022/07/17 08:20:39;;;;;;;;;;;;;;;23.77;40.64;100037.13;4975761;28;20404;-78
2022/07/17 08:23:05;;;;;;;;;;;;;;;23.78;40.69;100046.94;4975566;28;19914;-78
2022/07/17 08:25:30;;;;;;;;;;;;;;;23.79;40.72;100054.03;4975910;28;19914;-78
2022/07/17 08:27:55;;;;;;;;;;;;;;;23.78;40.92;100049.69;4975313;28;20424;-81
2022/07/17 08:30:21;;;;;;;;;;;;;;;23.78;40.90;100055.13;4975569;28;19918;-79
2022/07/17 08:32:46;;;;;;;;;;;;;;;23.78;40.92;100044.22;4975736;28;20280;-81
2022/07/17 08:35:11;;;;;;;;;;;;;;;23.78;40.85;100055.13;4978541;28;19918;-77
2022/07/17 08:37:50;;;;;;;;;;;;;;;23.78;41.09;100049.69;4979454;28;19914;-80
2022/07/17 08:40:16;;;;;;;;;;;;;;;23.78;40.92;100057.88;4979074;28;19914;-78
2022/07/17 08:42:42;;;;;;;;;;;;;;;23.78;41.23;100066.06;4978885;28;19949;-79
2022/07/17 08:45:08;;;;;;;;;;;;;;;23.78;41.29;100065.22;4979008;28;19936;-79
2022/07/17 08:47:33;;;;;;;;;;;;;;;23.79;41.30;100062.22;4978758;28;20403;-79
2022/07/17 08:49:59;;;;;;;;;;;;;;;23.79;41.19;100066.84;4978996;28;19914;-78
2022/07/17 08:52:24;;;;;;;;;;;;;;;23.79;41.15;100070.38;4978836;28;20292;-80
2022/07/17 08:54:49;;;;;;;;;;;;;;;23.78;41.52;100065.22;4961563;28;20016;-77
2022/07/17 08:57:14;;;;;;;;;;;;;;;23.78;41.31;100078.84;4979267;28;19940;-78
2022/07/17 08:59:41;;;;;;;;;;;;;;;23.79;41.32;100077.78;4978904;28;20350;-76
2022/07/17 09:02:06;;;;;;;;;;;;;;;23.78;41.44;100079.69;4978343;28;19922;-79
2022/07/17 09:04:32;;;;;;;;;;;;;;;23.78;41.43;100090.59;4978680;28;19924;-78
2022/07/17 09:06:58;;;;;;;;;;;;;;;23.78;41.28;100079.69;4978738;28;19925;-80
2022/07/17 09:09:23;;;;;;;;;;;;;;;23.79;41.29;100084.03;4978611;28;19914;-78
2022/07/17 09:11:50;;;;;;;;;;;;;;;23.78;41.33;100082.41;4978390;28;19918;-80
2022/07/17 09:14:17;;;;;;;;;;;;;;;23.79;40.84;100089.50;4978402;28;19914;-77
2022/07/17 09:16:48;;;;;;;;;;;;;;;23.78;40.94;100092.50;4978373;28;19921;-78
2022/07/17 09:19:23;;;;;;;;;;;;;;;23.77;40.75;100085.44;4978399;28;19918;-80
2022/07/17 09:21:48;;;;;;;;;;;;;;;23.77;40.58;100094.41;4978670;28;19979;-78
2022/07/17 09:24:13;;;;;;;;;;;;;;;23.77;40.45;100091.69;4961302;28;20037;-80
2022/07/17 09:26:43;;;;;;;;;;;;;;;23.79;40.28;100091.41;4978611;28;19918;-76
2022/07/17 09:29:11;;;;;;;;;;;;;;;23.79;40.32;100097.69;4978078;28;19914;-78
2022/07/17 09:31:36;;;;;;;;;;;;;;;23.78;40.23;100095.22;4978167;28;19914;-80
2022/07/17 09:34:02;;;;;;;;;;;;;;;23.78;40.23;100098.78;4960897;28;19920;-79
2022/07/17 09:36:27;;;;;;;;;;;;;;;23.78;40.04;100101.53;4978278;28;19917;-80
2022/07/17 09:38:53;;;;;;;;;;;;;;;23.77;39.93;100099.88;4978156;28;19914;-78
2022/07/17 09:41:19;;;;;;;;;;;;;;;23.78;39.99;100101.53;4978245;28;19914;-81
2022/07/17 09:43:50;;;;;;;;;;;;;;;23.78;39.81;100104.25;4977694;28;19917;-76
2022/07/17 09:46:22;;;;;;;;;;;;;;;23.77;39.58;100108.06;4977836;28;19921;-80
2022/07/17 09:48:49;;;;;;;;;;;;;;;23.78;39.56;100109.72;4978021;28;19914;-78
2022/07/17 09:51:15;;;;;;;;;;;;;;;23.78;39.50;100109.72;4978125;28;19960;-79
2022/07/17 09:53:40;;;;;;;;;;;;;;;23.78;39.63;100115.16;4977992;28;19913;-77
2022/07/17 09:56:06;;;;;;;;;;;;;;;23.77;39.53;100116.25;4960560;28;20423;-79
2022/07/17 09:58:31;;;;;;;;;;;;;;;23.79;39.36;100110.50;4960664;28;19924;-78
2022/07/17 10:00:56;;;;;;;;;;;;;;;23.78;39.35;100120.63;4978054;28;20338;-79
2022/07/17 10:03:22;;;;;;;;;;;;;;;23.76;39.43;100114.59;4977881;28;19922;-78
2022/07/17 10:05:47;;;;;;;;;;;;;;;23.77;39.24;100113.53;4978030;28;19914;-79
2022/07/17 10:08:12;;;;;;;;;;;;;;;23.78;39.31;100115.16;4977649;28;20331;-76
2022/07/17 10:10:37;;;;;;;;;;;;;;;23.78;39.15;100112.44;4977713;28;19914;-79
2022/07/17 10:13:03;;;;;;;;;;;;;;;23.78;39.13;100114.31;4960725;28;20420;-77
2022/07/17 10:15:28;;;;;;;;;;;;;;;23.80;39.02;100117.59;4977606;28;19914;-78
2022/07/17 10:18:05;;;;;;;;;;;;;;;23.79;39.03;100110.50;4977234;28;19914;-79
2022/07/17 10:20:31;;;;;;;;;;;;;;;23.75;39.07;100110.25;4977764;28;19921;-76
2022/07/17 10:22:56;;;;;;;;;;;;;;;23.77;39.12;100121.72;4960602;28;19914;-81
2022/07/17 10:25:21;;;;;;;;;;;;;;;23.78;38.84;100117.91;4959770;28;20424;-78
2022/07/17 10:27:53;;;;;;;;;;;;;;;23.78;38.75;100120.63;4977070;28;20000;-81
2022/07/17 10:30:26;;;;;;;;;;;;;;;23.78;38.73;100120.63;4977260;28;19921;-78
2022/07/17 10:32:56;;;;;;;;;;;;;;;23.77;38.55;100121.72;4977153;28;19918;-79
2022/07/17 10:35:21;;;;;;;;;;;;;;;23.77;38.58;100124.44;4976726;28;20373;-78
2022/07/17 10:37:46;;;;;;;;;;;;;;;23.78;38.42;100125.25;4977144;28;19921;-80
2022/07/17 10:40:18;;;;;;;;;;;;;;;23.78;38.49;100114.31;4976823;28;19914;-76
2022/07/17 10:42:59;;;;;;;;;;;;;;;23.77;38.23;100124.44;4976538;28;19918;-80
2022/07/17 10:45:24;;;;;;;;;;;;;;;23.76;38.16;100124.72;4977100;28;19914;-79
2022/07/17 10:47:55;;;;;;;;;;;;;;;23.74;37.88;100124.19;4976767;28;20355;-76
2022/07/17 10:50:26;;;;;;;;;;;;;;;23.75;37.69;100120.34;4976708;28;19929;-81
2022/07/17 10:53:01;;;;;;;;;;;;;;;23.76;37.72;100128.25;4957599;29;19914;-78
2022/07/17 10:55:27;;;;;;;;;;;;;;;23.75;37.89;100132.09;4957258;29;20357;-78
2022/07/17 10:57:53;;;;;;;;;;;;;;;23.76;37.47;100122.78;4956659;28;20393;-77
2022/07/17 11:00:19;;;;;;;;;;;;;;;23.75;37.59;100134.81;4957335;29;19914;-78
2022/07/17 11:02:45;;;;;;;;;;;;;;;23.77;37.57;100131.81;4957273;29;19941;-77
2022/07/17 11:05:10;;;;;;;;;;;;;;;23.77;37.65;100126.34;4957034;29;20326;-77
2022/07/17 11:07:35;;;;;;;;;;;;;;;23.76;37.76;100130.16;4957066;29;19914;-77
2022/07/17 11:10:01;;;;;;;;;;;;;;;23.77;37.80;100129.09;4957225;29;19926;-79
2022/07/17 11:12:30;;;;;;;;;;;;;;;23.77;37.57;100135.34;4957147;29;19914;-78
2022/07/17 11:14:59;;;;;;;;;;;;;;;23.77;37.60;100134.53;4956700;29;19915;-78
2022/07/17 11:17:24;;;;;;;;;;;;;;;23.76;37.52;100132.91;4956797;29;19914;-80
2022/07/17 11:19:50;;;;;;;;;;;;;;;23.77;37.27;100129.09;4956666;29;19940;-77
2022/07/17 11:22:15;;;;;;;;;;;;;;;23.75;37.32;100126.63;4957211;29;19961;-81
2022/07/17 11:24:47;;;;;;;;;;;;;;;23.76;37.52;100128.25;4957090;29;20347;-77
2022/07/17 11:27:18;;;;;;;;;;;;;;;23.76;37.14;100133.72;4956768;29;20357;-80
2022/07/17 11:29:43;;;;;;;;;;;;;;;23.76;37.30;100136.44;4956964;29;19914;-78
2022/07/17 11:32:09;;;;;;;;;;;;;;;23.76;37.32;100133.72;4956511;29;20292;-80
2022/07/17 11:34:34;;;;;;;;;;;;;;;23.76;37.24;100130.97;4956871;29;19914;-78
2022/07/17 11:37:02;;;;;;;;;;;;;;;23.77;36.69;100129.88;4957039;29;20369;-79
2022/07/17 11:39:35;;;;;;;;;;;;;;;23.77;36.91;100124.44;4956350;28;19961;-75
2022/07/17 11:42:01;;;;;;;;;;;;;;;23.75;36.76;100132.09;4939434;29;20022;-78
2022/07/17 11:44:26;;;;;;;;;;;;;;;23.76;36.59;100136.44;4956577;29;19945;-79
2022/07/17 11:46:52;;;;;;;;;;;;;;;23.75;36.21;100133.97;4956566;29;19976;-78
2022/07/17 11:49:26;;;;;;;;;;;;;;;23.73;36.59;100139.75;4956580;29;19914;-79
2022/07/17 11:51:52;;;;;;;;;;;;;;;23.75;36.50;100142.16;4956620;29;19915;-78
2022/07/17 11:54:17;;;;;;;;;;;;;;;23.73;36.73;100145.22;4956483;29;20012;-81
2022/07/17 11:56:43;;;;;;;;;;;;;;;23.71;36.11;100147.38;4956658;29;19965;-79
2022/07/17 11:59:08;;;;;;;;;;;;;;;23.73;36.31;100149.81;4956323;29;19972;-78
2022/07/17 12:01:38;;;;;;;;;;;;;;;23.71;36.11;100149.28;4956431;29;19922;-77
2022/07/17 12:04:03;;;;;;;;;;;;;;;23.72;36.11;100159.13;4939306;29;19923;-81
2022/07/17 12:06:28;;;;;;;;;;;;;;;23.72;35.84;100157.19;4956089;29;20370;-78
2022/07/17 12:08:54;;;;;;;;;;;;;;;23.69;35.80;100163.22;4955612;29;19920;-80
2022/07/17 12:11:19;;;;;;;;;;;;;;;23.70;35.86;100162.13;4956273;29;19915;-78
2022/07/17 12:13:46;;;;;;;;;;;;;;;23.71;36.19;100162.94;4956614;29;19914;-81
2022/07/17 12:16:21;;;;;;;;;;;;;;;23.71;36.16;100169.19;4939313;29;19915;-78
2022/07/17 12:18:56;;;;;;;;;;;;;;;23.70;36.44;100169.47;4956206;29;19914;-79
2022/07/17 12:21:22;;;;;;;;;;;;;;;23.70;36.46;100167.59;4956222;29;19922;-78
2022/07/17 12:23:55;;;;;;;;;;;;;;;23.72;36.40;100167.31;4956385;29;19978;-78
2022/07/17 12:26:20;;;;;;;;;;;;;;;23.71;36.36;100168.41;4956611;29;19969;-80
2022/07/17 12:28:45;;;;;;;;;;;;;;;23.73;36.14;100171.66;4956179;29;19918;-76
2022/07/17 12:31:11;;;;;;;;;;;;;;;23.71;36.26;100171.13;4956619;29;20025;-79
2022/07/17 12:33:36;;;;;;;;;;;;;;;23.71;36.59;100168.41;4956072;29;19915;-78
2022/07/17 12:36:02;;;;;;;;;;;;;;;23.72;36.31;100173.56;4956517;29;20013;-80